sensor_id;sensor_type;location;lat;lon;timestamp;temperature;humidity
32217;DHT22;18709;51.140;4.088;2022-12-24T00:00:23;12.40;95.40
32217;DHT22;18709;51.140;4.088;2022-12-24T00:02:49;12.40;95.10
32217;DHT22;18709;51.140;4.088;2022-12-24T00:05:15;12.30;95.40
32217;DHT22;18709;51.140;4.088;2022-12-24T00:07:41;12.30;95.50
32217;DHT22;18709;51.140;4.088;2022-12-24T00:10:07;12.20;95.70
32217;DHT22;18709;51.140;4.088;2022-12-24T00:12:33;12.20;95.60
32217;DHT22;18709;51.140;4.088;2022-12-24T00:14:59;12.20;95.80
32217;DHT22;18709;51.140;4.088;2022-12-24T00:17:24;12.20;95.60
32217;DHT22;18709;51.140;4.088;2022-12-24T00:19:50;12.30;95.50
32217;DHT22;18709;51.140;4.088;2022-12-24T00:22:15;12.20;95.60
32217;DHT22;18709;51.140;4.088;2022-12-24T00:24:41;12.20;95.60
32217;DHT22;18709;51.140;4.088;2022-12-24T00:27:07;12.20;95.60
32217;DHT22;18709;51.140;4.088;2022-12-24T00:29:33;12.10;95.90
32217;DHT22;18709;51.140;4.088;2022-12-24T00:31:58;12.20;95.70
32217;DHT22;18709;51.140;4.088;2022-12-24T00:34:24;12.30;95.70
32217;DHT22;18709;51.140;4.088;2022-12-24T00:36:51;12.10;96.10
32217;DHT22;18709;51.140;4.088;2022-12-24T00:39:17;12.10;96.30
32217;DHT22;18709;51.140;4.088;2022-12-24T00:41:42;12.10;96.50
32217;DHT22;18709;51.140;4.088;2022-12-24T00:44:08;12.20;96.20
32217;DHT22;18709;51.140;4.088;2022-12-24T00:46:39;12.40;96.00
32217;DHT22;18709;51.140;4.088;2022-12-24T00:49:06;12.40;95.90
32217;DHT22;18709;51.140;4.088;2022-12-24T00:51:33;12.40;95.90
32217;DHT22;18709;51.140;4.088;2022-12-24T00:54:00;12.50;95.90
32217;DHT22;18709;51.140;4.088;2022-12-24T00:56:25;12.50;95.80
32217;DHT22;18709;51.140;4.088;2022-12-24T00:58:51;12.50;96.20
32217;DHT22;18709;51.140;4.088;2022-12-24T01:01:17;12.50;95.90
32217;DHT22;18709;51.140;4.088;2022-12-24T01:03:43;12.50;96.00
32217;DHT22;18709;51.140;4.088;2022-12-24T01:06:14;12.60;95.80
32217;DHT22;18709;51.140;4.088;2022-12-24T01:08:40;12.60;95.70
32217;DHT22;18709;51.140;4.088;2022-12-24T01:11:07;12.60;95.90
32217;DHT22;18709;51.140;4.088;2022-12-24T01:13:34;12.50;96.00
32217;DHT22;18709;51.140;4.088;2022-12-24T01:16:00;12.60;96.00
32217;DHT22;18709;51.140;4.088;2022-12-24T01:18:25;12.70;95.70
32217;DHT22;18709;51.140;4.088;2022-12-24T01:20:59;12.70;95.70
32217;DHT22;18709;51.140;4.088;2022-12-24T01:23:26;12.70;95.90
32217;DHT22;18709;51.140;4.088;2022-12-24T01:25:52;12.60;96.00
32217;DHT22;18709;51.140;4.088;2022-12-24T01:28:19;12.70;95.90
32217;DHT22;18709;51.140;4.088;2022-12-24T01:30:45;12.50;96.20
32217;DHT22;18709;51.140;4.088;2022-12-24T01:33:10;12.60;96.10
32217;DHT22;18709;51.140;4.088;2022-12-24T01:35:40;12.60;96.10
32217;DHT22;18709;51.140;4.088;2022-12-24T01:38:06;12.50;96.20
32217;DHT22;18709;51.140;4.088;2022-12-24T01:40:32;12.50;96.20
32217;DHT22;18709;51.140;4.088;2022-12-24T01:43:19;12.60;96.20
32217;DHT22;18709;51.140;4.088;2022-12-24T01:45:56;12.60;96.10
32217;DHT22;18709;51.140;4.088;2022-12-24T01:51:41;12.40;96.30
32217;DHT22;18709;51.140;4.088;2022-12-24T01:54:21;12.40;96.40
32217;DHT22;18709;51.140;4.088;2022-12-24T01:56:55;12.50;96.30
32217;DHT22;18709;51.140;4.088;2022-12-24T01:59:22;12.50;96.30
32217;DHT22;18709;51.140;4.088;2022-12-24T02:01:49;12.50;96.40
32217;DHT22;18709;51.140;4.088;2022-12-24T02:04:27;12.60;96.50
32217;DHT22;18709;51.140;4.088;2022-12-24T02:06:55;12.60;96.50
32217;DHT22;18709;51.140;4.088;2022-12-24T02:09:20;12.60;96.40
32217;DHT22;18709;51.140;4.088;2022-12-24T02:11:46;12.50;96.60
32217;DHT22;18709;51.140;4.088;2022-12-24T02:14:12;12.40;97.00
32217;DHT22;18709;51.140;4.088;2022-12-24T02:17:03;12.40;97.10
32217;DHT22;18709;51.140;4.088;2022-12-24T02:24:53;12.40;97.30
32217;DHT22;18709;51.140;4.088;2022-12-24T02:30:12;12.60;96.90
32217;DHT22;18709;51.140;4.088;2022-12-24T02:37:58;12.50;96.80
32217;DHT22;18709;51.140;4.088;2022-12-24T02:40:33;12.40;96.80
32217;DHT22;18709;51.140;4.088;2022-12-24T02:43:14;12.50;96.70
32217;DHT22;18709;51.140;4.088;2022-12-24T02:45:45;12.50;96.90
32217;DHT22;18709;51.140;4.088;2022-12-24T02:48:14;12.40;96.90
32217;DHT22;18709;51.140;4.088;2022-12-24T02:51:04;12.40;96.60
32217;DHT22;18709;51.140;4.088;2022-12-24T02:53:31;12.30;96.90
32217;DHT22;18709;51.140;4.088;2022-12-24T03:09:19;12.50;96.20
32217;DHT22;18709;51.140;4.088;2022-12-24T03:11:56;12.40;96.30
32217;DHT22;18709;51.140;4.088;2022-12-24T03:14:24;12.40;96.20
32217;DHT22;18709;51.140;4.088;2022-12-24T03:16:51;12.50;96.10
32217;DHT22;18709;51.140;4.088;2022-12-24T03:19:17;12.50;96.20
32217;DHT22;18709;51.140;4.088;2022-12-24T03:21:43;12.50;96.10
32217;DHT22;18709;51.140;4.088;2022-12-24T03:24:11;12.50;96.20
32217;DHT22;18709;51.140;4.088;2022-12-24T03:26:37;12.40;96.20
32217;DHT22;18709;51.140;4.088;2022-12-24T03:29:05;12.60;96.20
32217;DHT22;18709;51.140;4.088;2022-12-24T03:31:46;12.40;96.40
32217;DHT22;18709;51.140;4.088;2022-12-24T03:34:13;12.40;96.40
32217;DHT22;18709;51.140;4.088;2022-12-24T03:36:39;12.50;96.40
32217;DHT22;18709;51.140;4.088;2022-12-24T03:39:05;12.40;96.40
32217;DHT22;18709;51.140;4.088;2022-12-24T03:41:31;12.40;96.60
32217;DHT22;18709;51.140;4.088;2022-12-24T03:43:57;12.30;96.70
32217;DHT22;18709;51.140;4.088;2022-12-24T03:46:23;12.40;96.40
32217;DHT22;18709;51.140;4.088;2022-12-24T03:48:48;12.40;96.10
32217;DHT22;18709;51.140;4.088;2022-12-24T03:51:22;12.50;96.10
32217;DHT22;18709;51.140;4.088;2022-12-24T03:53:48;12.40;96.10
32217;DHT22;18709;51.140;4.088;2022-12-24T03:56:14;12.40;96.00
32217;DHT22;18709;51.140;4.088;2022-12-24T03:58:40;12.30;96.10
32217;DHT22;18709;51.140;4.088;2022-12-24T04:01:05;12.10;96.50
32217;DHT22;18709;51.140;4.088;2022-12-24T04:03:31;12.20;96.30
32217;DHT22;18709;51.140;4.088;2022-12-24T04:06:05;12.20;96.20
32217;DHT22;18709;51.140;4.088;2022-12-24T04:08:32;12.20;96.20
32217;DHT22;18709;51.140;4.088;2022-12-24T04:10:57;12.10;96.30
32217;DHT22;18709;51.140;4.088;2022-12-24T04:13:23;12.20;96.30
32217;DHT22;18709;51.140;4.088;2022-12-24T04:16:09;12.20;96.30
32217;DHT22;18709;51.140;4.088;2022-12-24T04:18:36;12.30;96.10
32217;DHT22;18709;51.140;4.088;2022-12-24T04:21:03;12.20;96.20
32217;DHT22;18709;51.140;4.088;2022-12-24T04:23:30;12.30;96.10
32217;DHT22;18709;51.140;4.088;2022-12-24T04:25:58;12.40;95.90
32217;DHT22;18709;51.140;4.088;2022-12-24T04:28:24;12.20;96.10
32217;DHT22;18709;51.140;4.088;2022-12-24T04:30:49;12.20;96.20
32217;DHT22;18709;51.140;4.088;2022-12-24T04:33:15;12.10;96.30
32217;DHT22;18709;51.140;4.088;2022-12-24T04:35:41;12.20;96.20
32217;DHT22;18709;51.140;4.088;2022-12-24T04:38:08;12.20;96.20
32217;DHT22;18709;51.140;4.088;2022-12-24T04:40:34;12.30;96.00
32217;DHT22;18709;51.140;4.088;2022-12-24T04:42:59;12.10;96.40
32217;DHT22;18709;51.140;4.088;2022-12-24T04:45:25;12.00;96.20
32217;DHT22;18709;51.140;4.088;2022-12-24T04:47:50;12.00;96.30
32217;DHT22;18709;51.140;4.088;2022-12-24T04:50:16;12.10;96.20
32217;DHT22;18709;51.140;4.088;2022-12-24T04:52:42;12.00;96.30
32217;DHT22;18709;51.140;4.088;2022-12-24T04:55:08;12.10;96.40
32217;DHT22;18709;51.140;4.088;2022-12-24T04:57:33;12.10;96.30
32217;DHT22;18709;51.140;4.088;2022-12-24T05:00:01;12.10;96.10
32217;DHT22;18709;51.140;4.088;2022-12-24T05:02:26;11.90;96.40
32217;DHT22;18709;51.140;4.088;2022-12-24T05:04:52;11.90;96.20
32217;DHT22;18709;51.140;4.088;2022-12-24T05:07:18;11.80;96.50
32217;DHT22;18709;51.140;4.088;2022-12-24T05:09:43;11.90;96.50
32217;DHT22;18709;51.140;4.088;2022-12-24T05:12:09;11.90;96.40
32217;DHT22;18709;51.140;4.088;2022-12-24T05:14:35;12.00;96.20
32217;DHT22;18709;51.140;4.088;2022-12-24T05:17:00;12.00;96.30
32217;DHT22;18709;51.140;4.088;2022-12-24T05:19:26;11.90;96.40
32217;DHT22;18709;51.140;4.088;2022-12-24T05:21:51;11.80;96.60
32217;DHT22;18709;51.140;4.088;2022-12-24T05:24:36;11.80;96.80
32217;DHT22;18709;51.140;4.088;2022-12-24T05:27:20;11.80;96.50
32217;DHT22;18709;51.140;4.088;2022-12-24T05:29:46;11.80;96.40
32217;DHT22;18709;51.140;4.088;2022-12-24T05:32:11;11.90;96.30
32217;DHT22;18709;51.140;4.088;2022-12-24T05:34:37;11.90;96.30
32217;DHT22;18709;51.140;4.088;2022-12-24T05:37:03;12.00;96.10
32217;DHT22;18709;51.140;4.088;2022-12-24T05:39:28;12.00;96.30
32217;DHT22;18709;51.140;4.088;2022-12-24T05:41:54;11.90;96.50
32217;DHT22;18709;51.140;4.088;2022-12-24T05:44:19;11.90;96.30
32217;DHT22;18709;51.140;4.088;2022-12-24T05:46:45;11.90;96.40
32217;DHT22;18709;51.140;4.088;2022-12-24T05:49:11;12.00;96.30
32217;DHT22;18709;51.140;4.088;2022-12-24T05:51:37;12.00;96.10
32217;DHT22;18709;51.140;4.088;2022-12-24T05:54:04;12.00;96.30
32217;DHT22;18709;51.140;4.088;2022-12-24T05:56:30;12.10;96.30
32217;DHT22;18709;51.140;4.088;2022-12-24T05:58:56;12.00;96.30
32217;DHT22;18709;51.140;4.088;2022-12-24T06:01:23;12.00;96.70
32217;DHT22;18709;51.140;4.088;2022-12-24T06:03:49;12.00;96.50
32217;DHT22;18709;51.140;4.088;2022-12-24T06:06:17;12.00;96.50
32217;DHT22;18709;51.140;4.088;2022-12-24T06:08:43;11.90;96.70
32217;DHT22;18709;51.140;4.088;2022-12-24T06:11:12;12.00;96.50
32217;DHT22;18709;51.140;4.088;2022-12-24T06:13:39;12.00;96.60
32217;DHT22;18709;51.140;4.088;2022-12-24T06:16:07;12.00;96.70
32217;DHT22;18709;51.140;4.088;2022-12-24T06:18:34;12.00;96.70
32217;DHT22;18709;51.140;4.088;2022-12-24T06:21:00;12.00;96.80
32217;DHT22;18709;51.140;4.088;2022-12-24T06:23:28;12.00;96.70
32217;DHT22;18709;51.140;4.088;2022-12-24T06:25:55;12.10;96.80
32217;DHT22;18709;51.140;4.088;2022-12-24T06:28:22;12.10;96.50
32217;DHT22;18709;51.140;4.088;2022-12-24T06:30:49;12.00;96.60
32217;DHT22;18709;51.140;4.088;2022-12-24T06:33:15;12.10;96.40
32217;DHT22;18709;51.140;4.088;2022-12-24T06:35:43;12.00;96.60
32217;DHT22;18709;51.140;4.088;2022-12-24T06:38:09;12.10;96.50
32217;DHT22;18709;51.140;4.088;2022-12-24T06:40:37;12.10;96.50
32217;DHT22;18709;51.140;4.088;2022-12-24T06:43:03;12.20;96.40
32217;DHT22;18709;51.140;4.088;2022-12-24T06:45:29;12.20;96.20
32217;DHT22;18709;51.140;4.088;2022-12-24T06:47:55;12.30;96.00
32217;DHT22;18709;51.140;4.088;2022-12-24T06:50:20;12.30;96.10
32217;DHT22;18709;51.140;4.088;2022-12-24T06:52:46;12.20;96.20
32217;DHT22;18709;51.140;4.088;2022-12-24T06:55:12;12.20;96.20
32217;DHT22;18709;51.140;4.088;2022-12-24T06:57:37;12.20;96.30
32217;DHT22;18709;51.140;4.088;2022-12-24T07:00:04;12.20;96.50
32217;DHT22;18709;51.140;4.088;2022-12-24T07:02:30;12.20;96.40
32217;DHT22;18709;51.140;4.088;2022-12-24T07:04:55;12.30;96.30
32217;DHT22;18709;51.140;4.088;2022-12-24T07:07:21;12.30;96.30
32217;DHT22;18709;51.140;4.088;2022-12-24T07:09:46;12.20;96.20
32217;DHT22;18709;51.140;4.088;2022-12-24T07:12:12;12.20;96.20
32217;DHT22;18709;51.140;4.088;2022-12-24T07:14:38;12.10;96.40
32217;DHT22;18709;51.140;4.088;2022-12-24T07:17:03;12.10;96.30
32217;DHT22;18709;51.140;4.088;2022-12-24T07:19:29;12.10;96.40
32217;DHT22;18709;51.140;4.088;2022-12-24T07:21:54;12.10;96.40
32217;DHT22;18709;51.140;4.088;2022-12-24T07:24:20;12.10;96.30
32217;DHT22;18709;51.140;4.088;2022-12-24T07:26:46;12.10;96.50
32217;DHT22;18709;51.140;4.088;2022-12-24T07:29:11;12.10;96.50
32217;DHT22;18709;51.140;4.088;2022-12-24T07:31:37;12.10;96.60
32217;DHT22;18709;51.140;4.088;2022-12-24T07:34:03;12.00;96.70
32217;DHT22;18709;51.140;4.088;2022-12-24T07:36:28;12.00;96.80
32217;DHT22;18709;51.140;4.088;2022-12-24T07:38:54;12.10;96.50
32217;DHT22;18709;51.140;4.088;2022-12-24T07:41:21;12.00;96.60
32217;DHT22;18709;51.140;4.088;2022-12-24T07:43:46;12.00;96.70
32217;DHT22;18709;51.140;4.088;2022-12-24T07:46:12;12.10;96.40
32217;DHT22;18709;51.140;4.088;2022-12-24T07:48:38;12.10;96.40
32217;DHT22;18709;51.140;4.088;2022-12-24T07:51:04;12.10;96.20
32217;DHT22;18709;51.140;4.088;2022-12-24T07:53:30;12.10;96.20
32217;DHT22;18709;51.140;4.088;2022-12-24T07:55:56;12.10;96.30
32217;DHT22;18709;51.140;4.088;2022-12-24T07:58:22;12.10;96.10
32217;DHT22;18709;51.140;4.088;2022-12-24T08:00:48;12.20;96.00
32217;DHT22;18709;51.140;4.088;2022-12-24T08:03:18;12.10;96.20
32217;DHT22;18709;51.140;4.088;2022-12-24T08:05:44;12.20;96.10
32217;DHT22;18709;51.140;4.088;2022-12-24T08:08:10;12.20;96.20
32217;DHT22;18709;51.140;4.088;2022-12-24T08:10:38;12.10;96.50
32217;DHT22;18709;51.140;4.088;2022-12-24T08:13:04;12.10;96.20
32217;DHT22;18709;51.140;4.088;2022-12-24T08:15:29;11.90;96.50
32217;DHT22;18709;51.140;4.088;2022-12-24T08:17:55;12.10;96.40
32217;DHT22;18709;51.140;4.088;2022-12-24T08:20:21;12.10;96.30
32217;DHT22;18709;51.140;4.088;2022-12-24T08:22:46;12.30;96.00
32217;DHT22;18709;51.140;4.088;2022-12-24T08:25:12;12.20;96.00
32217;DHT22;18709;51.140;4.088;2022-12-24T08:27:38;12.30;95.80
32217;DHT22;18709;51.140;4.088;2022-12-24T08:30:04;12.50;95.70
32217;DHT22;18709;51.140;4.088;2022-12-24T08:32:30;12.40;95.70
32217;DHT22;18709;51.140;4.088;2022-12-24T08:34:55;12.50;95.70
32217;DHT22;18709;51.140;4.088;2022-12-24T08:37:21;12.60;95.60
32217;DHT22;18709;51.140;4.088;2022-12-24T08:39:47;12.50;95.60
32217;DHT22;18709;51.140;4.088;2022-12-24T08:42:12;12.60;95.10
32217;DHT22;18709;51.140;4.088;2022-12-24T08:44:38;12.60;95.20
32217;DHT22;18709;51.140;4.088;2022-12-24T08:47:04;12.50;95.30
32217;DHT22;18709;51.140;4.088;2022-12-24T08:49:29;12.50;95.40
32217;DHT22;18709;51.140;4.088;2022-12-24T08:51:55;12.40;95.50
32217;DHT22;18709;51.140;4.088;2022-12-24T08:54:20;12.40;95.40
32217;DHT22;18709;51.140;4.088;2022-12-24T08:56:47;12.40;95.20
32217;DHT22;18709;51.140;4.088;2022-12-24T08:59:13;12.30;95.60
32217;DHT22;18709;51.140;4.088;2022-12-24T09:01:39;12.30;95.50
32217;DHT22;18709;51.140;4.088;2022-12-24T09:04:05;12.30;95.50
32217;DHT22;18709;51.140;4.088;2022-12-24T09:06:31;12.30;95.70
32217;DHT22;18709;51.140;4.088;2022-12-24T09:08:57;12.30;95.70
32217;DHT22;18709;51.140;4.088;2022-12-24T09:11:23;12.40;95.30
32217;DHT22;18709;51.140;4.088;2022-12-24T09:13:49;12.40;95.30
32217;DHT22;18709;51.140;4.088;2022-12-24T09:16:15;12.50;95.20
32217;DHT22;18709;51.140;4.088;2022-12-24T09:18:41;12.50;95.20
32217;DHT22;18709;51.140;4.088;2022-12-24T09:21:10;12.30;95.70
32217;DHT22;18709;51.140;4.088;2022-12-24T09:23:40;12.40;95.40
32217;DHT22;18709;51.140;4.088;2022-12-24T09:26:13;12.50;95.30
32217;DHT22;18709;51.140;4.088;2022-12-24T09:28:39;12.60;95.00
32217;DHT22;18709;51.140;4.088;2022-12-24T09:31:05;12.70;95.00
32217;DHT22;18709;51.140;4.088;2022-12-24T09:33:34;12.70;95.00
32217;DHT22;18709;51.140;4.088;2022-12-24T09:36:01;12.80;95.00
32217;DHT22;18709;51.140;4.088;2022-12-24T09:38:27;12.80;94.90
32217;DHT22;18709;51.140;4.088;2022-12-24T09:40:54;12.90;94.80
32217;DHT22;18709;51.140;4.088;2022-12-24T09:43:22;12.90;94.70
32217;DHT22;18709;51.140;4.088;2022-12-24T09:48:20;13.00;94.70
32217;DHT22;18709;51.140;4.088;2022-12-24T09:51:08;13.00;94.70
32217;DHT22;18709;51.140;4.088;2022-12-24T09:53:53;13.10;94.40
32217;DHT22;18709;51.140;4.088;2022-12-24T09:56:23;13.20;94.30
32217;DHT22;18709;51.140;4.088;2022-12-24T09:59:04;13.20;94.50
32217;DHT22;18709;51.140;4.088;2022-12-24T10:01:31;13.20;94.50
32217;DHT22;18709;51.140;4.088;2022-12-24T10:04:05;13.30;94.10
32217;DHT22;18709;51.140;4.088;2022-12-24T10:09:44;13.30;94.10
32217;DHT22;18709;51.140;4.088;2022-12-24T10:12:28;13.20;94.30
32217;DHT22;18709;51.140;4.088;2022-12-24T10:24:02;13.30;94.10
32217;DHT22;18709;51.140;4.088;2022-12-24T10:28:48;13.40;94.20
32217;DHT22;18709;51.140;4.088;2022-12-24T10:31:19;13.30;94.30
32217;DHT22;18709;51.140;4.088;2022-12-24T10:33:52;13.40;94.00
32217;DHT22;18709;51.140;4.088;2022-12-24T10:36:24;13.50;93.80
32217;DHT22;18709;51.140;4.088;2022-12-24T10:38:51;13.60;93.60
32217;DHT22;18709;51.140;4.088;2022-12-24T10:41:17;13.50;93.50
32217;DHT22;18709;51.140;4.088;2022-12-24T10:43:44;13.30;94.10
32217;DHT22;18709;51.140;4.088;2022-12-24T10:46:35;13.40;94.00
32217;DHT22;18709;51.140;4.088;2022-12-24T10:49:10;13.50;93.80
32217;DHT22;18709;51.140;4.088;2022-12-24T10:51:49;13.60;94.00
32217;DHT22;18709;51.140;4.088;2022-12-24T10:54:17;13.70;93.90
32217;DHT22;18709;51.140;4.088;2022-12-24T10:56:47;13.90;93.70
32217;DHT22;18709;51.140;4.088;2022-12-24T11:04:50;14.20;93.00
32217;DHT22;18709;51.140;4.088;2022-12-24T11:07:22;14.30;92.90
32217;DHT22;18709;51.140;4.088;2022-12-24T11:10:12;14.30;92.70
32217;DHT22;18709;51.140;4.088;2022-12-24T11:12:47;14.30;92.80
32217;DHT22;18709;51.140;4.088;2022-12-24T11:15:19;14.40;92.70
32217;DHT22;18709;51.140;4.088;2022-12-24T11:18:04;14.30;92.60
32217;DHT22;18709;51.140;4.088;2022-12-24T11:20:36;14.20;93.00
32217;DHT22;18709;51.140;4.088;2022-12-24T11:23:03;14.10;93.10
32217;DHT22;18709;51.140;4.088;2022-12-24T11:25:33;14.10;93.00
32217;DHT22;18709;51.140;4.088;2022-12-24T11:28:29;14.20;93.10
32217;DHT22;18709;51.140;4.088;2022-12-24T11:31:18;14.20;92.90
32217;DHT22;18709;51.140;4.088;2022-12-24T11:33:49;14.10;92.80
32217;DHT22;18709;51.140;4.088;2022-12-24T11:36:18;14.10;92.70
32217;DHT22;18709;51.140;4.088;2022-12-24T11:38:55;14.10;92.80
32217;DHT22;18709;51.140;4.088;2022-12-24T11:41:21;14.10;93.00
32217;DHT22;18709;51.140;4.088;2022-12-24T11:43:50;14.30;92.80
32217;DHT22;18709;51.140;4.088;2022-12-24T11:51:39;14.60;92.60
32217;DHT22;18709;51.140;4.088;2022-12-24T11:56:40;14.70;92.20
32217;DHT22;18709;51.140;4.088;2022-12-24T11:59:16;14.70;92.10
32217;DHT22;18709;51.140;4.088;2022-12-24T12:01:48;14.80;92.00
32217;DHT22;18709;51.140;4.088;2022-12-24T12:04:19;14.90;91.80
32217;DHT22;18709;51.140;4.088;2022-12-24T12:09:27;14.80;92.10
32217;DHT22;18709;51.140;4.088;2022-12-24T12:12:15;14.90;92.10
32217;DHT22;18709;51.140;4.088;2022-12-24T12:14:53;15.00;92.00
32217;DHT22;18709;51.140;4.088;2022-12-24T12:20:20;15.10;91.90
32217;DHT22;18709;51.140;4.088;2022-12-24T12:25:33;15.20;91.50
32217;DHT22;18709;51.140;4.088;2022-12-24T12:28:01;15.20;91.60
32217;DHT22;18709;51.140;4.088;2022-12-24T12:30:28;15.20;91.60
32217;DHT22;18709;51.140;4.088;2022-12-24T12:35:39;15.50;91.10
32217;DHT22;18709;51.140;4.088;2022-12-24T12:38:19;15.50;91.00
32217;DHT22;18709;51.140;4.088;2022-12-24T12:41:23;15.50;91.10
32217;DHT22;18709;51.140;4.088;2022-12-24T12:49:19;15.50;91.10
32217;DHT22;18709;51.140;4.088;2022-12-24T12:57:44;15.40;91.30
32217;DHT22;18709;51.140;4.088;2022-12-24T13:00:15;15.40;91.20
32217;DHT22;18709;51.140;4.088;2022-12-24T13:14:30;15.60;90.60
32217;DHT22;18709;51.140;4.088;2022-12-24T13:20:23;15.60;90.50
32217;DHT22;18709;51.140;4.088;2022-12-24T13:22:21;15.40;90.90
32217;DHT22;18709;51.140;4.088;2022-12-24T13:24:52;15.30;90.90
32217;DHT22;18709;51.140;4.088;2022-12-24T13:27:30;15.20;91.30
32217;DHT22;18709;51.140;4.088;2022-12-24T13:30:02;15.00;91.50
32217;DHT22;18709;51.140;4.088;2022-12-24T13:37:45;14.90;91.60
32217;DHT22;18709;51.140;4.088;2022-12-24T13:47:59;15.10;91.20
32217;DHT22;18709;51.140;4.088;2022-12-24T13:53:00;14.90;91.30
32217;DHT22;18709;51.140;4.088;2022-12-24T13:55:27;14.80;91.60
32217;DHT22;18709;51.140;4.088;2022-12-24T13:58:00;14.70;91.60
32217;DHT22;18709;51.140;4.088;2022-12-24T14:00:33;14.70;91.70
32217;DHT22;18709;51.140;4.088;2022-12-24T14:03:23;14.80;91.80
32217;DHT22;18709;51.140;4.088;2022-12-24T14:06:12;14.90;91.70
32217;DHT22;18709;51.140;4.088;2022-12-24T14:08:46;14.90;91.60
32217;DHT22;18709;51.140;4.088;2022-12-24T14:11:21;15.00;91.50
32217;DHT22;18709;51.140;4.088;2022-12-24T14:16:28;15.10;91.30
32217;DHT22;18709;51.140;4.088;2022-12-24T14:19:13;15.20;91.40
32217;DHT22;18709;51.140;4.088;2022-12-24T14:22:00;15.30;91.10
32217;DHT22;18709;51.140;4.088;2022-12-24T14:24:39;15.30;91.00
32217;DHT22;18709;51.140;4.088;2022-12-24T14:30:07;15.20;91.10
32217;DHT22;18709;51.140;4.088;2022-12-24T14:32:40;15.10;91.10
32217;DHT22;18709;51.140;4.088;2022-12-24T14:35:18;15.10;91.10
32217;DHT22;18709;51.140;4.088;2022-12-24T14:38:11;15.20;91.10
32217;DHT22;18709;51.140;4.088;2022-12-24T14:46:06;15.10;91.30
32217;DHT22;18709;51.140;4.088;2022-12-24T14:51:42;15.10;91.10
32217;DHT22;18709;51.140;4.088;2022-12-24T14:54:25;15.10;91.30
32217;DHT22;18709;51.140;4.088;2022-12-24T14:57:12;15.00;91.30
32217;DHT22;18709;51.140;4.088;2022-12-24T15:05:16;14.90;91.30
32217;DHT22;18709;51.140;4.088;2022-12-24T15:07:59;15.00;91.30
32217;DHT22;18709;51.140;4.088;2022-12-24T15:10:30;14.90;91.30
32217;DHT22;18709;51.140;4.088;2022-12-24T15:13:46;14.80;91.10
32217;DHT22;18709;51.140;4.088;2022-12-24T15:15:51;14.70;91.20
32217;DHT22;18709;51.140;4.088;2022-12-24T15:18:19;14.50;91.40
32217;DHT22;18709;51.140;4.088;2022-12-24T15:20:50;14.40;91.80
32217;DHT22;18709;51.140;4.088;2022-12-24T15:23:19;14.20;92.00
32217;DHT22;18709;51.140;4.088;2022-12-24T15:25:45;14.20;92.10
32217;DHT22;18709;51.140;4.088;2022-12-24T15:28:19;14.20;92.10
32217;DHT22;18709;51.140;4.088;2022-12-24T15:30:45;14.10;92.20
32217;DHT22;18709;51.140;4.088;2022-12-24T15:33:11;14.10;92.10
32217;DHT22;18709;51.140;4.088;2022-12-24T15:35:55;14.00;92.30
32217;DHT22;18709;51.140;4.088;2022-12-24T15:38:28;14.00;92.30
32217;DHT22;18709;51.140;4.088;2022-12-24T15:40:55;14.00;92.20
32217;DHT22;18709;51.140;4.088;2022-12-24T15:43:21;14.00;92.20
32217;DHT22;18709;51.140;4.088;2022-12-24T15:45:47;13.90;92.10
32217;DHT22;18709;51.140;4.088;2022-12-24T15:48:17;13.90;92.10
32217;DHT22;18709;51.140;4.088;2022-12-24T15:50:50;13.90;92.10
32217;DHT22;18709;51.140;4.088;2022-12-24T15:53:29;13.80;92.00
32217;DHT22;18709;51.140;4.088;2022-12-24T15:56:11;13.80;92.00
32217;DHT22;18709;51.140;4.088;2022-12-24T15:58:42;13.70;92.20
32217;DHT22;18709;51.140;4.088;2022-12-24T16:03:36;13.60;92.30
32217;DHT22;18709;51.140;4.088;2022-12-24T16:06:03;13.60;92.30
32217;DHT22;18709;51.140;4.088;2022-12-24T16:08:31;13.70;92.30
32217;DHT22;18709;51.140;4.088;2022-12-24T16:11:25;13.60;92.20
32217;DHT22;18709;51.140;4.088;2022-12-24T16:14:13;13.50;92.30
32217;DHT22;18709;51.140;4.088;2022-12-24T16:16:45;13.50;92.30
32217;DHT22;18709;51.140;4.088;2022-12-24T16:19:21;13.40;92.40
32217;DHT22;18709;51.140;4.088;2022-12-24T16:21:51;13.40;92.40
32217;DHT22;18709;51.140;4.088;2022-12-24T16:24:19;13.40;92.50
32217;DHT22;18709;51.140;4.088;2022-12-24T16:26:46;13.30;92.60
32217;DHT22;18709;51.140;4.088;2022-12-24T16:29:13;13.30;92.50
32217;DHT22;18709;51.140;4.088;2022-12-24T16:31:57;13.30;92.60
32217;DHT22;18709;51.140;4.088;2022-12-24T16:34:25;13.30;92.60
32217;DHT22;18709;51.140;4.088;2022-12-24T16:36:51;13.20;92.70
32217;DHT22;18709;51.140;4.088;2022-12-24T16:39:29;13.20;92.70
32217;DHT22;18709;51.140;4.088;2022-12-24T16:41:57;13.20;92.80
32217;DHT22;18709;51.140;4.088;2022-12-24T16:44:42;13.20;93.00
32217;DHT22;18709;51.140;4.088;2022-12-24T16:47:27;13.10;93.10
32217;DHT22;18709;51.140;4.088;2022-12-24T16:49:56;13.20;93.20
32217;DHT22;18709;51.140;4.088;2022-12-24T16:52:24;13.20;93.20
32217;DHT22;18709;51.140;4.088;2022-12-24T16:54:54;13.20;93.10
32217;DHT22;18709;51.140;4.088;2022-12-24T16:57:21;13.20;93.20
32217;DHT22;18709;51.140;4.088;2022-12-24T16:59:47;13.20;93.10
32217;DHT22;18709;51.140;4.088;2022-12-24T17:02:15;13.10;93.10
32217;DHT22;18709;51.140;4.088;2022-12-24T17:04:41;13.10;93.00
32217;DHT22;18709;51.140;4.088;2022-12-24T17:07:09;13.10;93.10
32217;DHT22;18709;51.140;4.088;2022-12-24T17:09:35;13.10;93.20
32217;DHT22;18709;51.140;4.088;2022-12-24T17:12:00;13.00;93.20
32217;DHT22;18709;51.140;4.088;2022-12-24T17:14:26;13.00;93.20
32217;DHT22;18709;51.140;4.088;2022-12-24T17:16:51;13.00;93.10
32217;DHT22;18709;51.140;4.088;2022-12-24T17:19:17;13.00;93.20
32217;DHT22;18709;51.140;4.088;2022-12-24T17:21:43;13.00;93.20
32217;DHT22;18709;51.140;4.088;2022-12-24T17:24:09;13.00;93.20
32217;DHT22;18709;51.140;4.088;2022-12-24T17:26:35;13.00;93.30
32217;DHT22;18709;51.140;4.088;2022-12-24T17:29:01;12.90;93.30
32217;DHT22;18709;51.140;4.088;2022-12-24T17:31:30;12.90;93.30
32217;DHT22;18709;51.140;4.088;2022-12-24T17:33:56;12.90;93.30
32217;DHT22;18709;51.140;4.088;2022-12-24T17:36:21;12.80;93.30
32217;DHT22;18709;51.140;4.088;2022-12-24T17:38:48;12.80;93.40
32217;DHT22;18709;51.140;4.088;2022-12-24T17:41:16;12.80;93.40
32217;DHT22;18709;51.140;4.088;2022-12-24T17:43:42;12.80;93.40
32217;DHT22;18709;51.140;4.088;2022-12-24T17:46:10;12.80;93.40
32217;DHT22;18709;51.140;4.088;2022-12-24T17:48:37;12.80;93.50
32217;DHT22;18709;51.140;4.088;2022-12-24T17:51:07;12.70;93.50
32217;DHT22;18709;51.140;4.088;2022-12-24T17:53:37;12.70;93.50
32217;DHT22;18709;51.140;4.088;2022-12-24T17:56:03;12.70;93.60
32217;DHT22;18709;51.140;4.088;2022-12-24T17:58:29;12.70;93.60